sensor_id;sensor_type;location;lat;lon;timestamp;P1;durP1;ratioP1;P2;durP2;ratioP2
69822;SDS011;57119;52.516;13.508;2023-06-24T00:02:09;15.75;;;8.85;;
69822;SDS011;57119;52.516;13.508;2023-06-24T00:04:34;13.80;;;8.67;;
69822;SDS011;57119;52.516;13.508;2023-06-24T00:07:00;14.83;;;8.30;;
69822;SDS011;57119;52.516;13.508;2023-06-24T00:09:26;14.33;;;9.13;;
69822;SDS011;57119;52.516;13.508;2023-06-24T00:11:53;14.98;;;9.05;;
69822;SDS011;57119;52.516;13.508;2023-06-24T00:14:19;21.05;;;9.32;;
69822;SDS011;57119;52.516;13.508;2023-06-24T00:16:46;16.20;;;9.05;;
69822;SDS011;57119;52.516;13.508;2023-06-24T00:19:16;14.73;;;9.43;;
69822;SDS011;57119;52.516;13.508;2023-06-24T00:21:43;15.13;;;9.15;;
69822;SDS011;57119;52.516;13.508;2023-06-24T00:24:09;15.85;;;9.52;;
69822;SDS011;57119;52.516;13.508;2023-06-24T00:26:34;15.77;;;9.67;;
69822;SDS011;57119;52.516;13.508;2023-06-24T00:29:00;16.47;;;9.80;;
69822;SDS011;57119;52.516;13.508;2023-06-24T00:31:25;17.07;;;9.27;;
69822;SDS011;57119;52.516;13.508;2023-06-24T00:33:50;17.50;;;9.40;;
69822;SDS011;57119;52.516;13.508;2023-06-24T00:36:17;14.82;;;9.80;;
69822;SDS011;57119;52.516;13.508;2023-06-24T00:38:42;19.08;;;10.27;;
69822;SDS011;57119;52.516;13.508;2023-06-24T00:41:08;17.07;;;10.33;;
69822;SDS011;57119;52.516;13.508;2023-06-24T00:43:34;16.92;;;10.18;;
69822;SDS011;57119;52.516;13.508;2023-06-24T00:46:00;18.02;;;10.25;;
69822;SDS011;57119;52.516;13.508;2023-06-24T00:48:26;13.70;;;8.90;;
69822;SDS011;57119;52.516;13.508;2023-06-24T00:50:51;14.43;;;9.33;;
69822;SDS011;57119;52.516;13.508;2023-06-24T00:53:17;16.20;;;10.68;;
69822;SDS011;57119;52.516;13.508;2023-06-24T00:55:43;20.27;;;11.23;;
69822;SDS011;57119;52.516;13.508;2023-06-24T00:58:12;16.83;;;10.85;;
69822;SDS011;57119;52.516;13.508;2023-06-24T01:00:45;22.52;;;11.63;;
69822;SDS011;57119;52.516;13.508;2023-06-24T01:03:13;19.42;;;12.93;;
69822;SDS011;57119;52.516;13.508;2023-06-24T01:05:38;22.40;;;12.03;;
69822;SDS011;57119;52.516;13.508;2023-06-24T01:08:05;25.15;;;13.73;;
69822;SDS011;57119;52.516;13.508;2023-06-24T01:10:31;25.52;;;13.98;;
69822;SDS011;57119;52.516;13.508;2023-06-24T01:12:57;24.70;;;13.97;;
69822;SDS011;57119;52.516;13.508;2023-06-24T01:15:22;22.20;;;13.27;;
69822;SDS011;57119;52.516;13.508;2023-06-24T01:20:47;21.98;;;13.93;;
69822;SDS011;57119;52.516;13.508;2023-06-24T01:34:06;23.17;;;14.80;;
69822;SDS011;57119;52.516;13.508;2023-06-24T01:36:49;24.47;;;14.10;;
69822;SDS011;57119;52.516;13.508;2023-06-24T01:39:24;20.17;;;14.05;;
69822;SDS011;57119;52.516;13.508;2023-06-24T01:41:59;24.42;;;13.90;;
69822;SDS011;57119;52.516;13.508;2023-06-24T01:44:34;24.85;;;13.70;;
69822;SDS011;57119;52.516;13.508;2023-06-24T01:47:01;23.55;;;13.55;;
69822;SDS011;57119;52.516;13.508;2023-06-24T01:49:29;25.60;;;13.77;;
69822;SDS011;57119;52.516;13.508;2023-06-24T01:51:56;25.33;;;13.80;;
69822;SDS011;57119;52.516;13.508;2023-06-24T01:54:23;22.83;;;13.30;;
69822;SDS011;57119;52.516;13.508;2023-06-24T01:56:50;24.13;;;13.25;;
69822;SDS011;57119;52.516;13.508;2023-06-24T01:59:19;20.92;;;12.45;;
69822;SDS011;57119;52.516;13.508;2023-06-24T02:01:46;24.07;;;12.93;;
69822;SDS011;57119;52.516;13.508;2023-06-24T02:04:12;22.02;;;12.95;;
69822;SDS011;57119;52.516;13.508;2023-06-24T02:06:39;20.52;;;12.25;;
69822;SDS011;57119;52.516;13.508;2023-06-24T02:09:06;20.55;;;11.88;;
69822;SDS011;57119;52.516;13.508;2023-06-24T02:11:32;18.83;;;11.82;;
69822;SDS011;57119;52.516;13.508;2023-06-24T02:13:58;22.97;;;12.30;;
69822;SDS011;57119;52.516;13.508;2023-06-24T02:16:26;18.85;;;11.30;;
69822;SDS011;57119;52.516;13.508;2023-06-24T02:18:52;19.90;;;12.32;;
69822;SDS011;57119;52.516;13.508;2023-06-24T02:21:20;20.05;;;12.32;;
69822;SDS011;57119;52.516;13.508;2023-06-24T02:23:46;20.85;;;11.63;;
69822;SDS011;57119;52.516;13.508;2023-06-24T02:26:13;20.87;;;12.27;;
69822;SDS011;57119;52.516;13.508;2023-06-24T02:28:40;25.95;;;12.85;;
69822;SDS011;57119;52.516;13.508;2023-06-24T02:31:06;21.38;;;12.70;;
69822;SDS011;57119;52.516;13.508;2023-06-24T02:33:34;20.90;;;12.82;;
69822;SDS011;57119;52.516;13.508;2023-06-24T02:35:59;21.50;;;12.37;;
69822;SDS011;57119;52.516;13.508;2023-06-24T02:38:25;26.60;;;12.57;;
69822;SDS011;57119;52.516;13.508;2023-06-24T02:40:50;22.47;;;11.83;;
69822;SDS011;57119;52.516;13.508;2023-06-24T02:43:17;17.77;;;11.70;;
69822;SDS011;57119;52.516;13.508;2023-06-24T02:45:42;22.00;;;12.40;;
69822;SDS011;57119;52.516;13.508;2023-06-24T02:48:08;19.33;;;11.60;;
69822;SDS011;57119;52.516;13.508;2023-06-24T02:50:35;18.20;;;11.48;;
69822;SDS011;57119;52.516;13.508;2023-06-24T02:53:01;20.80;;;11.82;;
69822;SDS011;57119;52.516;13.508;2023-06-24T02:55:27;20.40;;;12.13;;
69822;SDS011;57119;52.516;13.508;2023-06-24T02:57:54;20.27;;;12.63;;
69822;SDS011;57119;52.516;13.508;2023-06-24T03:00:20;19.30;;;11.52;;
69822;SDS011;57119;52.516;13.508;2023-06-24T03:02:46;20.17;;;12.02;;
69822;SDS011;57119;52.516;13.508;2023-06-24T03:05:12;19.03;;;12.03;;
69822;SDS011;57119;52.516;13.508;2023-06-24T03:07:39;21.30;;;10.82;;
69822;SDS011;57119;52.516;13.508;2023-06-24T03:10:06;19.27;;;12.02;;
69822;SDS011;57119;52.516;13.508;2023-06-24T03:12:32;21.30;;;11.63;;
69822;SDS011;57119;52.516;13.508;2023-06-24T03:14:57;19.33;;;11.47;;
69822;SDS011;57119;52.516;13.508;2023-06-24T03:17:22;20.00;;;11.10;;
69822;SDS011;57119;52.516;13.508;2023-06-24T03:19:49;16.45;;;10.35;;
69822;SDS011;57119;52.516;13.508;2023-06-24T03:22:15;20.67;;;11.23;;
69822;SDS011;57119;52.516;13.508;2023-06-24T03:24:42;19.35;;;11.25;;
69822;SDS011;57119;52.516;13.508;2023-06-24T03:27:07;21.30;;;11.50;;
69822;SDS011;57119;52.516;13.508;2023-06-24T03:29:33;17.63;;;10.90;;
69822;SDS011;57119;52.516;13.508;2023-06-24T03:31:58;17.27;;;10.50;;
69822;SDS011;57119;52.516;13.508;2023-06-24T03:34:23;19.73;;;10.77;;
69822;SDS011;57119;52.516;13.508;2023-06-24T03:36:50;17.63;;;10.37;;
69822;SDS011;57119;52.516;13.508;2023-06-24T03:39:16;18.13;;;10.57;;
69822;SDS011;57119;52.516;13.508;2023-06-24T03:41:41;17.37;;;10.23;;
69822;SDS011;57119;52.516;13.508;2023-06-24T03:44:06;16.90;;;10.17;;
69822;SDS011;57119;52.516;13.508;2023-06-24T03:46:32;18.20;;;10.60;;
69822;SDS011;57119;52.516;13.508;2023-06-24T03:48:58;18.77;;;10.07;;
69822;SDS011;57119;52.516;13.508;2023-06-24T03:51:23;16.50;;;10.23;;
69822;SDS011;57119;52.516;13.508;2023-06-24T03:53:49;15.57;;;9.60;;
69822;SDS011;57119;52.516;13.508;2023-06-24T03:56:15;17.83;;;9.70;;
69822;SDS011;57119;52.516;13.508;2023-06-24T03:58:40;18.27;;;10.50;;
69822;SDS011;57119;52.516;13.508;2023-06-24T04:01:06;17.60;;;10.30;;
69822;SDS011;57119;52.516;13.508;2023-06-24T04:03:31;16.55;;;10.18;;
69822;SDS011;57119;52.516;13.508;2023-06-24T04:05:57;17.77;;;10.93;;
69822;SDS011;57119;52.516;13.508;2023-06-24T04:08:23;17.70;;;9.57;;
69822;SDS011;57119;52.516;13.508;2023-06-24T04:10:50;17.37;;;9.87;;
69822;SDS011;57119;52.516;13.508;2023-06-24T04:13:15;16.80;;;10.05;;
69822;SDS011;57119;52.516;13.508;2023-06-24T04:15:41;19.80;;;10.90;;
69822;SDS011;57119;52.516;13.508;2023-06-24T04:18:06;18.03;;;10.77;;
69822;SDS011;57119;52.516;13.508;2023-06-24T04:20:32;16.20;;;10.05;;
69822;SDS011;57119;52.516;13.508;2023-06-24T04:22:59;20.35;;;10.07;;
69822;SDS011;57119;52.516;13.508;2023-06-24T04:25:25;17.38;;;9.93;;
69822;SDS011;57119;52.516;13.508;2023-06-24T04:27:50;17.20;;;10.17;;
69822;SDS011;57119;52.516;13.508;2023-06-24T04:30:16;18.30;;;10.40;;
69822;SDS011;57119;52.516;13.508;2023-06-24T04:32:41;18.30;;;10.03;;
69822;SDS011;57119;52.516;13.508;2023-06-24T04:35:06;17.03;;;9.97;;
69822;SDS011;57119;52.516;13.508;2023-06-24T04:37:32;17.27;;;9.60;;
69822;SDS011;57119;52.516;13.508;2023-06-24T04:39:57;19.80;;;10.50;;
69822;SDS011;57119;52.516;13.508;2023-06-24T04:42:23;18.10;;;9.87;;
69822;SDS011;57119;52.516;13.508;2023-06-24T04:44:49;20.15;;;10.07;;
69822;SDS011;57119;52.516;13.508;2023-06-24T04:47:17;15.90;;;9.90;;
69822;SDS011;57119;52.516;13.508;2023-06-24T04:49:43;16.47;;;10.00;;
69822;SDS011;57119;52.516;13.508;2023-06-24T04:52:09;17.15;;;9.77;;
69822;SDS011;57119;52.516;13.508;2023-06-24T04:54:36;20.08;;;10.35;;
69822;SDS011;57119;52.516;13.508;2023-06-24T04:57:01;20.10;;;10.10;;
69822;SDS011;57119;52.516;13.508;2023-06-24T04:59:27;17.60;;;10.00;;
69822;SDS011;57119;52.516;13.508;2023-06-24T05:01:52;17.33;;;9.77;;
69822;SDS011;57119;52.516;13.508;2023-06-24T05:04:18;16.45;;;9.40;;
69822;SDS011;57119;52.516;13.508;2023-06-24T05:06:43;18.87;;;9.07;;
69822;SDS011;57119;52.516;13.508;2023-06-24T05:09:08;16.57;;;9.20;;
69822;SDS011;57119;52.516;13.508;2023-06-24T05:11:38;16.25;;;9.32;;
69822;SDS011;57119;52.516;13.508;2023-06-24T05:14:03;14.80;;;8.90;;
69822;SDS011;57119;52.516;13.508;2023-06-24T05:16:29;19.27;;;9.07;;
69822;SDS011;57119;52.516;13.508;2023-06-24T05:18:54;16.95;;;9.68;;
69822;SDS011;57119;52.516;13.508;2023-06-24T05:21:19;16.27;;;9.40;;
69822;SDS011;57119;52.516;13.508;2023-06-24T05:23:45;13.67;;;8.03;;
69822;SDS011;57119;52.516;13.508;2023-06-24T05:26:10;21.00;;;9.90;;
69822;SDS011;57119;52.516;13.508;2023-06-24T05:28:36;15.93;;;8.35;;
69822;SDS011;57119;52.516;13.508;2023-06-24T05:31:01;14.53;;;9.20;;
69822;SDS011;57119;52.516;13.508;2023-06-24T05:33:27;15.70;;;8.53;;
69822;SDS011;57119;52.516;13.508;2023-06-24T05:35:52;17.87;;;9.30;;
69822;SDS011;57119;52.516;13.508;2023-06-24T05:38:18;18.42;;;9.15;;
69822;SDS011;57119;52.516;13.508;2023-06-24T05:40:43;15.10;;;8.57;;
69822;SDS011;57119;52.516;13.508;2023-06-24T05:43:08;14.57;;;8.37;;
69822;SDS011;57119;52.516;13.508;2023-06-24T05:45:35;17.00;;;7.88;;
69822;SDS011;57119;52.516;13.508;2023-06-24T05:50:27;14.70;;;8.82;;
69822;SDS011;57119;52.516;13.508;2023-06-24T05:52:53;12.93;;;8.37;;
69822;SDS011;57119;52.516;13.508;2023-06-24T05:55:18;13.27;;;7.97;;
69822;SDS011;57119;52.516;13.508;2023-06-24T05:57:44;15.60;;;8.00;;
69822;SDS011;57119;52.516;13.508;2023-06-24T06:00:09;13.03;;;7.37;;
69822;SDS011;57119;52.516;13.508;2023-06-24T06:02:35;13.10;;;7.28;;
69822;SDS011;57119;52.516;13.508;2023-06-24T06:05:00;15.77;;;7.63;;
69822;SDS011;57119;52.516;13.508;2023-06-24T06:07:26;16.48;;;8.10;;
69822;SDS011;57119;52.516;13.508;2023-06-24T06:09:51;13.33;;;8.17;;
69822;SDS011;57119;52.516;13.508;2023-06-24T06:12:17;15.80;;;7.80;;
69822;SDS011;57119;52.516;13.508;2023-06-24T06:14:42;14.97;;;7.53;;
69822;SDS011;57119;52.516;13.508;2023-06-24T06:17:08;13.30;;;7.50;;
69822;SDS011;57119;52.516;13.508;2023-06-24T06:19:33;12.97;;;7.20;;
69822;SDS011;57119;52.516;13.508;2023-06-24T06:21:59;12.60;;;6.95;;
69822;SDS011;57119;52.516;13.508;2023-06-24T06:24:24;13.17;;;6.87;;
69822;SDS011;57119;52.516;13.508;2023-06-24T06:26:49;12.07;;;6.87;;
69822;SDS011;57119;52.516;13.508;2023-06-24T06:29:15;11.90;;;6.90;;
69822;SDS011;57119;52.516;13.508;2023-06-24T06:31:40;13.27;;;7.83;;
69822;SDS011;57119;52.516;13.508;2023-06-24T06:34:05;11.87;;;7.37;;
69822;SDS011;57119;52.516;13.508;2023-06-24T06:36:31;13.67;;;7.50;;
69822;SDS011;57119;52.516;13.508;2023-06-24T06:38:56;12.70;;;7.20;;
69822;SDS011;57119;52.516;13.508;2023-06-24T06:41:21;12.77;;;6.30;;
69822;SDS011;57119;52.516;13.508;2023-06-24T06:43:52;12.85;;;6.97;;
69822;SDS011;57119;52.516;13.508;2023-06-24T06:46:18;11.65;;;6.88;;
69822;SDS011;57119;52.516;13.508;2023-06-24T06:48:44;12.32;;;6.97;;
69822;SDS011;57119;52.516;13.508;2023-06-24T06:51:10;12.13;;;5.87;;
69822;SDS011;57119;52.516;13.508;2023-06-24T06:53:35;13.77;;;6.07;;
69822;SDS011;57119;52.516;13.508;2023-06-24T06:56:01;13.17;;;6.40;;
69822;SDS011;57119;52.516;13.508;2023-06-24T06:58:26;10.27;;;6.20;;
69822;SDS011;57119;52.516;13.508;2023-06-24T07:00:52;11.30;;;6.53;;
69822;SDS011;57119;52.516;13.508;2023-06-24T07:03:17;13.63;;;6.57;;
69822;SDS011;57119;52.516;13.508;2023-06-24T07:05:42;12.65;;;7.10;;
69822;SDS011;57119;52.516;13.508;2023-06-24T07:08:08;10.33;;;5.73;;
69822;SDS011;57119;52.516;13.508;2023-06-24T07:10:33;10.93;;;5.93;;
69822;SDS011;57119;52.516;13.508;2023-06-24T07:12:59;12.37;;;5.53;;
69822;SDS011;57119;52.516;13.508;2023-06-24T07:15:27;13.15;;;6.20;;
69822;SDS011;57119;52.516;13.508;2023-06-24T07:17:53;11.70;;;6.10;;
69822;SDS011;57119;52.516;13.508;2023-06-24T07:20:18;10.00;;;5.75;;
69822;SDS011;57119;52.516;13.508;2023-06-24T07:22:44;10.87;;;5.90;;
69822;SDS011;57119;52.516;13.508;2023-06-24T07:25:10;11.70;;;6.13;;
69822;SDS011;57119;52.516;13.508;2023-06-24T07:27:35;11.07;;;6.17;;
69822;SDS011;57119;52.516;13.508;2023-06-24T07:30:00;11.57;;;6.50;;
69822;SDS011;57119;52.516;13.508;2023-06-24T07:32:26;11.97;;;5.50;;
69822;SDS011;57119;52.516;13.508;2023-06-24T07:34:51;10.03;;;4.93;;
69822;SDS011;57119;52.516;13.508;2023-06-24T07:37:16;10.30;;;5.97;;
69822;SDS011;57119;52.516;13.508;2023-06-24T07:39:42;12.70;;;5.53;;
69822;SDS011;57119;52.516;13.508;2023-06-24T07:42:07;12.07;;;5.73;;
69822;SDS011;57119;52.516;13.508;2023-06-24T07:44:33;10.53;;;5.20;;
69822;SDS011;57119;52.516;13.508;2023-06-24T07:46:58;11.68;;;5.30;;
69822;SDS011;57119;52.516;13.508;2023-06-24T07:49:24;10.47;;;5.37;;
69822;SDS011;57119;52.516;13.508;2023-06-24T07:51:49;9.53;;;5.97;;
69822;SDS011;57119;52.516;13.508;2023-06-24T07:54:14;10.80;;;5.73;;
69822;SDS011;57119;52.516;13.508;2023-06-24T07:56:40;10.98;;;6.03;;
69822;SDS011;57119;52.516;13.508;2023-06-24T07:59:05;13.23;;;5.33;;
69822;SDS011;57119;52.516;13.508;2023-06-24T08:01:31;10.67;;;5.73;;
69822;SDS011;57119;52.516;13.508;2023-06-24T08:03:56;8.67;;;5.20;;
69822;SDS011;57119;52.516;13.508;2023-06-24T08:06:21;8.43;;;5.10;;
69822;SDS011;57119;52.516;13.508;2023-06-24T08:08:47;8.65;;;5.20;;
69822;SDS011;57119;52.516;13.508;2023-06-24T08:11:12;9.03;;;5.07;;
69822;SDS011;57119;52.516;13.508;2023-06-24T08:13:38;9.93;;;4.97;;
69822;SDS011;57119;52.516;13.508;2023-06-24T08:16:04;9.93;;;5.17;;
69822;SDS011;57119;52.516;13.508;2023-06-24T08:18:30;8.23;;;4.47;;
69822;SDS011;57119;52.516;13.508;2023-06-24T08:20:55;7.77;;;4.60;;
69822;SDS011;57119;52.516;13.508;2023-06-24T08:23:21;7.73;;;4.67;;
69822;SDS011;57119;52.516;13.508;2023-06-24T08:25:46;10.33;;;4.57;;
69822;SDS011;57119;52.516;13.508;2023-06-24T08:28:11;7.73;;;4.00;;
69822;SDS011;57119;52.516;13.508;2023-06-24T08:30:37;8.40;;;4.10;;
69822;SDS011;57119;52.516;13.508;2023-06-24T08:33:02;9.30;;;4.50;;
69822;SDS011;57119;52.516;13.508;2023-06-24T08:35:27;8.97;;;4.83;;
69822;SDS011;57119;52.516;13.508;2023-06-24T08:37:53;8.20;;;4.03;;
69822;SDS011;57119;52.516;13.508;2023-06-24T08:40:18;8.93;;;5.67;;
69822;SDS011;57119;52.516;13.508;2023-06-24T08:42:44;8.27;;;5.00;;
69822;SDS011;57119;52.516;13.508;2023-06-24T08:45:10;8.17;;;4.63;;
69822;SDS011;57119;52.516;13.508;2023-06-24T08:47:35;7.67;;;4.67;;
69822;SDS011;57119;52.516;13.508;2023-06-24T08:50:02;8.52;;;5.00;;
69822;SDS011;57119;52.516;13.508;2023-06-24T08:52:42;8.40;;;4.40;;
69822;SDS011;57119;52.516;13.508;2023-06-24T08:55:10;9.47;;;4.47;;
69822;SDS011;57119;52.516;13.508;2023-06-24T08:57:39;9.57;;;4.50;;
69822;SDS011;57119;52.516;13.508;2023-06-24T09:00:05;8.18;;;4.65;;
69822;SDS011;57119;52.516;13.508;2023-06-24T09:02:34;8.52;;;4.82;;
69822;SDS011;57119;52.516;13.508;2023-06-24T09:05:03;8.13;;;4.30;;
69822;SDS011;57119;52.516;13.508;2023-06-24T09:07:31;7.80;;;4.20;;
69822;SDS011;57119;52.516;13.508;2023-06-24T09:09:57;8.60;;;4.57;;
69822;SDS011;57119;52.516;13.508;2023-06-24T09:12:24;9.15;;;4.32;;
69822;SDS011;57119;52.516;13.508;2023-06-24T09:14:51;10.45;;;4.38;;
69822;SDS011;57119;52.516;13.508;2023-06-24T09:17:17;8.10;;;4.13;;
69822;SDS011;57119;52.516;13.508;2023-06-24T09:19:43;7.95;;;4.03;;
69822;SDS011;57119;52.516;13.508;2023-06-24T09:22:09;8.50;;;4.10;;
69822;SDS011;57119;52.516;13.508;2023-06-24T09:24:42;10.02;;;4.40;;
69822;SDS011;57119;52.516;13.508;2023-06-24T09:27:12;7.85;;;4.18;;
69822;SDS011;57119;52.516;13.508;2023-06-24T09:29:39;8.32;;;4.15;;
69822;SDS011;57119;52.516;13.508;2023-06-24T09:32:06;8.85;;;4.22;;
69822;SDS011;57119;52.516;13.508;2023-06-24T09:34:32;7.97;;;4.53;;
69822;SDS011;57119;52.516;13.508;2023-06-24T09:36:58;11.55;;;4.88;;
69822;SDS011;57119;52.516;13.508;2023-06-24T09:39:25;8.57;;;4.53;;
69822;SDS011;57119;52.516;13.508;2023-06-24T09:41:55;7.28;;;4.43;;
69822;SDS011;57119;52.516;13.508;2023-06-24T09:44:21;8.73;;;4.93;;
69822;SDS011;57119;52.516;13.508;2023-06-24T09:46:47;8.83;;;4.17;;
69822;SDS011;57119;52.516;13.508;2023-06-24T09:49:13;8.35;;;4.90;;
69822;SDS011;57119;52.516;13.508;2023-06-24T09:51:39;8.90;;;5.50;;
69822;SDS011;57119;52.516;13.508;2023-06-24T09:54:08;7.40;;;5.10;;
69822;SDS011;57119;52.516;13.508;2023-06-24T09:56:36;8.23;;;5.63;;
69822;SDS011;57119;52.516;13.508;2023-06-24T09:59:04;9.07;;;5.15;;
69822;SDS011;57119;52.516;13.508;2023-06-24T10:01:35;9.38;;;4.88;;
69822;SDS011;57119;52.516;13.508;2023-06-24T10:04:03;8.35;;;4.68;;
69822;SDS011;57119;52.516;13.508;2023-06-24T10:06:30;7.40;;;4.27;;
69822;SDS011;57119;52.516;13.508;2023-06-24T10:08:57;7.35;;;4.15;;
69822;SDS011;57119;52.516;13.508;2023-06-24T10:11:23;7.22;;;4.78;;
69822;SDS011;57119;52.516;13.508;2023-06-24T10:13:48;7.83;;;4.80;;
69822;SDS011;57119;52.516;13.508;2023-06-24T10:16:14;8.30;;;5.00;;
69822;SDS011;57119;52.516;13.508;2023-06-24T10:18:40;9.40;;;4.70;;
69822;SDS011;57119;52.516;13.508;2023-06-24T10:21:06;8.00;;;4.77;;
69822;SDS011;57119;52.516;13.508;2023-06-24T10:23:33;8.35;;;4.20;;
69822;SDS011;57119;52.516;13.508;2023-06-24T10:26:28;9.75;;;4.47;;
69822;SDS011;57119;52.516;13.508;2023-06-24T10:44:48;7.68;;;4.40;;
69822;SDS011;57119;52.516;13.508;2023-06-24T10:47:14;7.28;;;4.10;;
69822;SDS011;57119;52.516;13.508;2023-06-24T10:49:40;7.43;;;4.40;;
69822;SDS011;57119;52.516;13.508;2023-06-24T10:52:09;7.03;;;4.40;;
69822;SDS011;57119;52.516;13.508;2023-06-24T10:54:35;8.07;;;4.68;;
69822;SDS011;57119;52.516;13.508;2023-06-24T10:57:02;7.45;;;4.57;;
69822;SDS011;57119;52.516;13.508;2023-06-24T10:59:33;8.55;;;4.72;;
69822;SDS011;57119;52.516;13.508;2023-06-24T11:02:14;7.40;;;5.00;;
69822;SDS011;57119;52.516;13.508;2023-06-24T11:04:51;10.25;;;4.68;;
69822;SDS011;57119;52.516;13.508;2023-06-24T11:07:19;9.82;;;5.68;;
69822;SDS011;57119;52.516;13.508;2023-06-24T11:10:27;8.55;;;5.05;;
69822;SDS011;57119;52.516;13.508;2023-06-24T11:12:38;8.23;;;4.68;;
69822;SDS011;57119;52.516;13.508;2023-06-24T11:15:07;7.82;;;4.72;;
69822;SDS011;57119;52.516;13.508;2023-06-24T11:17:34;6.93;;;4.63;;
69822;SDS011;57119;52.516;13.508;2023-06-24T11:20:01;9.30;;;4.30;;
69822;SDS011;57119;52.516;13.508;2023-06-24T11:22:27;6.65;;;4.07;;
69822;SDS011;57119;52.516;13.508;2023-06-24T11:24:53;9.70;;;4.20;;
69822;SDS011;57119;52.516;13.508;2023-06-24T11:27:28;8.15;;;4.70;;
69822;SDS011;57119;52.516;13.508;2023-06-24T11:29:54;11.32;;;5.05;;
69822;SDS011;57119;52.516;13.508;2023-06-24T11:32:23;8.70;;;4.97;;
69822;SDS011;57119;52.516;13.508;2023-06-24T11:34:48;8.27;;;5.57;;
69822;SDS011;57119;52.516;13.508;2023-06-24T11:37:14;9.00;;;4.53;;
69822;SDS011;57119;52.516;13.508;2023-06-24T11:39:41;7.25;;;4.50;;
69822;SDS011;57119;52.516;13.508;2023-06-24T11:42:07;8.60;;;5.43;;
69822;SDS011;57119;52.516;13.508;2023-06-24T11:44:33;7.00;;;4.47;;
69822;SDS011;57119;52.516;13.508;2023-06-24T11:47:05;6.90;;;4.65;;
69822;SDS011;57119;52.516;13.508;2023-06-24T11:49:31;9.70;;;4.97;;
69822;SDS011;57119;52.516;13.508;2023-06-24T11:51:57;7.53;;;4.63;;
69822;SDS011;57119;52.516;13.508;2023-06-24T11:54:22;8.83;;;5.43;;
69822;SDS011;57119;52.516;13.508;2023-06-24T11:56:51;7.82;;;5.60;;
69822;SDS011;57119;52.516;13.508;2023-06-24T12:01:57;9.93;;;5.17;;
69822;SDS011;57119;52.516;13.508;2023-06-24T12:04:29;6.53;;;4.33;;
69822;SDS011;57119;52.516;13.508;2023-06-24T12:06:56;6.45;;;4.43;;
69822;SDS011;57119;52.516;13.508;2023-06-24T12:09:22;7.88;;;4.45;;
69822;SDS011;57119;52.516;13.508;2023-06-24T12:11:48;7.27;;;3.97;;
69822;SDS011;57119;52.516;13.508;2023-06-24T12:14:13;8.50;;;5.28;;
69822;SDS011;57119;52.516;13.508;2023-06-24T12:16:39;7.77;;;5.33;;
69822;SDS011;57119;52.516;13.508;2023-06-24T12:19:05;9.60;;;5.25;;
69822;SDS011;57119;52.516;13.508;2023-06-24T12:21:33;6.35;;;4.47;;
69822;SDS011;57119;52.516;13.508;2023-06-24T12:24:00;6.40;;;4.37;;
69822;SDS011;57119;52.516;13.508;2023-06-24T12:26:29;5.77;;;3.47;;
69822;SDS011;57119;52.516;13.508;2023-06-24T12:28:54;5.85;;;3.70;;
69822;SDS011;57119;52.516;13.508;2023-06-24T12:31:23;7.10;;;4.10;;
69822;SDS011;57119;52.516;13.508;2023-06-24T12:33:49;6.50;;;4.63;;
69822;SDS011;57119;52.516;13.508;2023-06-24T12:36:15;6.75;;;4.43;;
69822;SDS011;57119;52.516;13.508;2023-06-24T12:38:41;6.80;;;4.50;;
69822;SDS011;57119;52.516;13.508;2023-06-24T12:41:06;7.68;;;4.90;;
69822;SDS011;57119;52.516;13.508;2023-06-24T12:43:32;7.13;;;4.97;;
69822;SDS011;57119;52.516;13.508;2023-06-24T12:45:57;7.27;;;4.63;;
69822;SDS011;57119;52.516;13.508;2023-06-24T12:48:23;7.27;;;4.83;;
69822;SDS011;57119;52.516;13.508;2023-06-24T12:50:48;9.37;;;4.83;;
69822;SDS011;57119;52.516;13.508;2023-06-24T12:53:17;7.30;;;5.32;;
69822;SDS011;57119;52.516;13.508;2023-06-24T12:55:43;6.53;;;4.47;;
69822;SDS011;57119;52.516;13.508;2023-06-24T12:58:08;7.77;;;5.33;;
69822;SDS011;57119;52.516;13.508;2023-06-24T13:00:33;8.17;;;5.50;;
69822;SDS011;57119;52.516;13.508;2023-06-24T13:02:59;7.75;;;5.28;;
69822;SDS011;57119;52.516;13.508;2023-06-24T13:05:24;7.03;;;4.87;;
69822;SDS011;57119;52.516;13.508;2023-06-24T13:07:50;8.80;;;4.67;;
69822;SDS011;57119;52.516;13.508;2023-06-24T13:10:15;7.83;;;5.73;;
69822;SDS011;57119;52.516;13.508;2023-06-24T13:12:41;6.60;;;5.13;;
69822;SDS011;57119;52.516;13.508;2023-06-24T13:15:06;8.17;;;4.73;;
69822;SDS011;57119;52.516;13.508;2023-06-24T13:17:34;8.07;;;5.10;;
69822;SDS011;57119;52.516;13.508;2023-06-24T13:19:59;8.30;;;4.80;;
69822;SDS011;57119;52.516;13.508;2023-06-24T13:22:26;7.55;;;4.82;;
69822;SDS011;57119;52.516;13.508;2023-06-24T13:24:51;8.90;;;5.00;;
69822;SDS011;57119;52.516;13.508;2023-06-24T13:27:18;8.48;;;4.90;;
69822;SDS011;57119;52.516;13.508;2023-06-24T13:29:43;7.90;;;4.93;;
69822;SDS011;57119;52.516;13.508;2023-06-24T13:32:09;9.20;;;4.97;;
69822;SDS011;57119;52.516;13.508;2023-06-24T13:34:34;8.80;;;4.85;;
69822;SDS011;57119;52.516;13.508;2023-06-24T13:37:00;7.03;;;4.80;;
69822;SDS011;57119;52.516;13.508;2023-06-24T13:39:25;8.50;;;5.50;;
69822;SDS011;57119;52.516;13.508;2023-06-24T13:41:52;9.43;;;5.43;;
69822;SDS011;57119;52.516;13.508;2023-06-24T13:44:18;8.77;;;5.07;;
69822;SDS011;57119;52.516;13.508;2023-06-24T13:46:43;7.50;;;5.20;;
69822;SDS011;57119;52.516;13.508;2023-06-24T13:49:09;7.88;;;5.53;;
69822;SDS011;57119;52.516;13.508;2023-06-24T13:51:35;9.35;;;5.65;;
69822;SDS011;57119;52.516;13.508;2023-06-24T13:54:01;8.10;;;5.60;;
69822;SDS011;57119;52.516;13.508;2023-06-24T13:56:26;10.07;;;5.53;;
69822;SDS011;57119;52.516;13.508;2023-06-24T13:58:53;8.20;;;5.65;;
69822;SDS011;57119;52.516;13.508;2023-06-24T14:01:19;7.85;;;5.05;;
69822;SDS011;57119;52.516;13.508;2023-06-24T14:03:44;7.78;;;5.25;;
69822;SDS011;57119;52.516;13.508;2023-06-24T14:06:10;8.47;;;5.67;;
69822;SDS011;57119;52.516;13.508;2023-06-24T14:08:36;7.25;;;5.18;;
69822;SDS011;57119;52.516;13.508;2023-06-24T14:11:01;7.37;;;5.87;;
69822;SDS011;57119;52.516;13.508;2023-06-24T14:13:27;7.35;;;5.00;;
69822;SDS011;57119;52.516;13.508;2023-06-24T14:15:54;8.52;;;5.78;;
69822;SDS011;57119;52.516;13.508;2023-06-24T14:18:20;8.93;;;5.50;;
69822;SDS011;57119;52.516;13.508;2023-06-24T14:20:46;8.20;;;5.85;;
69822;SDS011;57119;52.516;13.508;2023-06-24T14:23:11;8.53;;;5.40;;
69822;SDS011;57119;52.516;13.508;2023-06-24T14:25:36;9.87;;;6.27;;
69822;SDS011;57119;52.516;13.508;2023-06-24T14:28:05;10.98;;;7.00;;
69822;SDS011;57119;52.516;13.508;2023-06-24T14:30:31;7.70;;;5.88;;
69822;SDS011;57119;52.516;13.508;2023-06-24T14:32:56;6.63;;;5.13;;
69822;SDS011;57119;52.516;13.508;2023-06-24T14:35:21;9.55;;;4.82;;
69822;SDS011;57119;52.516;13.508;2023-06-24T14:37:47;9.37;;;6.37;;
69822;SDS011;57119;52.516;13.508;2023-06-24T14:40:12;7.37;;;4.90;;
69822;SDS011;57119;52.516;13.508;2023-06-24T14:42:38;7.10;;;5.00;;
69822;SDS011;57119;52.516;13.508;2023-06-24T14:45:03;8.63;;;5.67;;
69822;SDS011;57119;52.516;13.508;2023-06-24T14:47:29;7.25;;;5.22;;
69822;SDS011;57119;52.516;13.508;2023-06-24T14:49:54;8.00;;;4.93;;
69822;SDS011;57119;52.516;13.508;2023-06-24T14:52:19;8.13;;;4.70;;
69822;SDS011;57119;52.516;13.508;2023-06-24T14:54:46;7.43;;;5.20;;